createdAt,value
2019-04-04T00:00:27.726Z,0.00
2019-04-04T00:01:27.705Z,0.00
2019-04-04T00:02:27.645Z,0.00
2019-04-04T00:03:27.628Z,0.00
2019-04-04T00:04:27.556Z,0.00
2019-04-04T00:05:27.503Z,0.00
2019-04-04T00:06:27.736Z,0.00
2019-04-04T00:07:29.008Z,0.00
2019-04-04T00:08:30.858Z,0.00
2019-04-04T00:09:27.333Z,0.00
2019-04-04T00:10:27.288Z,0.00
2019-04-04T00:11:27.246Z,0.00
2019-04-04T00:12:27.207Z,0.00
2019-04-04T00:13:27.160Z,0.00
2019-04-04T00:14:27.119Z,0.00
2019-04-04T00:15:27.065Z,0.00
2019-04-04T00:16:27.024Z,0.00
2019-04-04T00:17:26.975Z,0.00
2019-04-04T00:18:27.454Z,0.00
2019-04-04T00:19:27.890Z,0.00
2019-04-04T00:20:26.854Z,0.00
2019-04-04T00:21:26.796Z,0.00
2019-04-04T00:22:26.744Z,0.00
2019-04-04T00:23:26.707Z,0.00
2019-04-04T00:24:26.673Z,0.00
2019-04-04T00:25:26.610Z,0.00
2019-04-04T00:26:26.573Z,0.00
2019-04-04T00:27:26.533Z,0.00
2019-04-04T00:28:26.484Z,0.00
2019-04-04T00:29:26.467Z,0.00
2019-04-04T00:30:26.388Z,0.00
2019-04-04T00:31:26.366Z,0.00
2019-04-04T00:32:26.306Z,0.00
2019-04-04T00:33:26.388Z,0.00
2019-04-04T00:34:28.150Z,0.00
2019-04-04T00:35:26.185Z,0.00
2019-04-04T00:36:26.130Z,0.00
2019-04-04T00:37:26.096Z,0.00
2019-04-04T00:38:26.039Z,0.00
2019-04-04T00:39:26.006Z,0.00
2019-04-04T00:40:25.948Z,0.00
2019-04-04T00:41:25.908Z,0.00
2019-04-04T00:42:25.850Z,0.00
2019-04-04T00:43:25.827Z,0.00
2019-04-04T00:44:25.769Z,0.00
2019-04-04T00:45:28.723Z,0.00
2019-04-04T00:46:25.693Z,0.00
2019-04-04T00:47:25.649Z,0.00
2019-04-04T00:48:25.582Z,0.00
2019-04-04T00:49:25.547Z,0.00
2019-04-04T00:50:25.492Z,0.00
2019-04-04T00:51:25.448Z,0.00
2019-04-04T00:52:25.424Z,0.00
2019-04-04T00:53:25.366Z,0.00
2019-04-04T00:54:25.334Z,0.00
2019-04-04T00:55:25.268Z,0.00
2019-04-04T00:56:25.249Z,0.00
2019-04-04T00:57:25.192Z,0.00
2019-04-04T00:58:25.142Z,0.00
2019-04-04T00:59:25.111Z,0.00
2019-04-04T01:00:25.058Z,0.00
2019-04-04T01:01:26.899Z,0.00
2019-04-04T01:02:27.279Z,0.00
2019-04-04T01:03:24.923Z,0.00
2019-04-04T01:04:24.865Z,0.00
2019-04-04T01:05:24.823Z,0.00
2019-04-04T01:06:24.784Z,0.00
2019-04-04T01:07:24.753Z,0.00
2019-04-04T01:08:24.686Z,0.00
2019-04-04T01:09:24.660Z,0.00
2019-04-04T01:10:24.609Z,0.00
2019-04-04T01:11:24.565Z,0.00
2019-04-04T01:12:24.520Z,0.00
2019-04-04T01:13:27.255Z,0.00
2019-04-04T01:14:24.444Z,0.00
2019-04-04T01:15:24.432Z,0.00
2019-04-04T01:16:24.348Z,0.00
2019-04-04T01:17:24.295Z,0.00
2019-04-04T01:18:24.245Z,0.00
2019-04-04T01:19:24.192Z,0.00
2019-04-04T01:20:24.168Z,0.00
2019-04-04T01:21:24.115Z,0.00
2019-04-04T01:22:25.021Z,0.00
2019-04-04T01:23:25.148Z,0.00
2019-04-04T01:24:23.980Z,0.00
2019-04-04T01:25:23.935Z,0.00
2019-04-04T01:26:23.886Z,0.00
2019-04-04T01:27:23.841Z,0.00
2019-04-04T01:28:23.800Z,0.00
2019-04-04T01:29:23.751Z,0.00
2019-04-04T01:30:23.710Z,0.00
2019-04-04T01:31:23.665Z,0.00
2019-04-04T01:32:23.567Z,0.00
2019-04-04T01:33:23.562Z,0.00
2019-04-04T01:34:23.526Z,0.00
2019-04-04T01:35:23.472Z,0.00
2019-04-04T01:36:25.319Z,0.00
2019-04-04T01:37:25.086Z,0.00
2019-04-04T01:38:23.338Z,0.00
2019-04-04T01:39:23.301Z,0.00
2019-04-04T01:40:23.267Z,0.00
2019-04-04T01:41:23.211Z,0.00
2019-04-04T01:42:23.158Z,0.00
2019-04-04T01:43:23.134Z,0.00
2019-04-04T01:44:23.068Z,0.00
2019-04-04T01:45:23.044Z,0.00
2019-04-04T01:46:22.990Z,0.00
2019-04-04T01:47:22.933Z,0.00
2019-04-04T01:48:22.890Z,0.00
2019-04-04T01:49:22.844Z,0.00
2019-04-04T01:50:23.379Z,0.00
2019-04-04T01:51:23.255Z,0.00
2019-04-04T01:52:22.721Z,0.00
2019-04-04T01:53:22.684Z,0.00
2019-04-04T01:54:22.639Z,0.00
2019-04-04T01:55:22.583Z,0.00
2019-04-04T01:56:22.543Z,0.00
2019-04-04T01:57:22.496Z,0.00
2019-04-04T01:58:22.447Z,0.00
2019-04-04T01:59:22.392Z,0.00
2019-04-04T02:00:22.360Z,0.00
2019-04-04T02:01:22.324Z,0.00
2019-04-04T02:02:22.266Z,0.00
2019-04-04T02:03:22.740Z,0.00
2019-04-04T02:04:24.567Z,0.00
2019-04-04T02:05:22.121Z,0.00
2019-04-04T02:06:22.099Z,0.00
2019-04-04T02:07:22.041Z,0.00
2019-04-04T02:08:22.008Z,0.00
2019-04-04T02:09:21.943Z,0.00
2019-04-04T02:10:21.909Z,0.00
2019-04-04T02:11:21.864Z,0.00
2019-04-04T02:12:21.806Z,0.00
2019-04-04T02:13:21.769Z,0.00
2019-04-04T02:14:21.724Z,0.00
2019-04-04T02:15:21.679Z,0.00
2019-04-04T02:16:21.634Z,0.00
2019-04-04T02:17:22.330Z,0.00
2019-04-04T02:18:23.330Z,0.00
2019-04-04T02:19:22.949Z,0.00
2019-04-04T02:20:21.489Z,0.00
2019-04-04T02:21:21.411Z,0.00
2019-04-04T02:22:21.356Z,0.00
2019-04-04T02:23:21.331Z,0.00
2019-04-04T02:24:21.264Z,0.00
2019-04-04T02:25:21.228Z,0.00
2019-04-04T02:26:21.186Z,0.00
2019-04-04T02:27:21.137Z,0.00
2019-04-04T02:28:21.109Z,0.00
2019-04-04T02:29:21.051Z,0.00
2019-04-04T02:30:21.016Z,0.00
2019-04-04T02:31:21.847Z,0.00
2019-04-04T02:32:20.911Z,0.00
2019-04-04T02:33:20.897Z,0.00
2019-04-04T02:34:20.839Z,0.00
2019-04-04T02:35:20.783Z,0.00
2019-04-04T02:36:20.744Z,0.00
2019-04-04T02:37:21.951Z,0.00
2019-04-04T02:38:20.641Z,0.00
2019-04-04T02:39:20.619Z,0.00
2019-04-04T02:40:20.555Z,0.00
2019-04-04T02:41:20.513Z,0.00
2019-04-04T02:42:22.301Z,0.00
2019-04-04T02:43:20.456Z,0.00
2019-04-04T02:44:20.383Z,0.00
2019-04-04T02:45:20.316Z,0.00
2019-04-04T02:46:20.292Z,0.00
2019-04-04T02:47:20.254Z,0.00
2019-04-04T02:48:23.430Z,0.00
2019-04-04T02:49:20.156Z,0.00
2019-04-04T02:50:20.111Z,0.00
2019-04-04T02:51:20.046Z,0.00
2019-04-04T02:52:20.012Z,0.00
2019-04-04T02:53:20.564Z,0.00
2019-04-04T02:54:24.205Z,0.00
2019-04-04T02:55:19.888Z,0.00
2019-04-04T02:56:19.839Z,0.00
2019-04-04T02:57:19.773Z,0.00
2019-04-04T02:58:19.732Z,0.00
2019-04-04T02:59:21.478Z,0.00
2019-04-04T03:00:19.646Z,0.00
2019-04-04T03:01:19.601Z,0.00
2019-04-04T03:02:19.568Z,0.00
2019-04-04T03:03:19.510Z,0.00
2019-04-04T03:04:19.479Z,0.00
2019-04-04T03:05:20.072Z,0.00
2019-04-04T03:06:23.865Z,0.00
2019-04-04T03:07:19.342Z,0.00
2019-04-04T03:08:19.296Z,0.00
2019-04-04T03:09:19.243Z,0.00
2019-04-04T03:10:19.206Z,0.00
2019-04-04T03:11:22.145Z,0.00
2019-04-04T03:12:19.118Z,0.00
2019-04-04T03:13:19.109Z,0.00
2019-04-04T03:14:19.030Z,0.00
2019-04-04T03:15:18.987Z,0.00
2019-04-04T03:16:21.476Z,0.00
2019-04-04T03:17:18.888Z,0.00
2019-04-04T03:18:18.840Z,0.00
2019-04-04T03:19:18.779Z,0.00
2019-04-04T03:21:22.017Z,0.00
2019-04-04T03:22:18.675Z,0.00
2019-04-04T03:23:18.625Z,0.00
2019-04-04T03:24:18.566Z,0.00
2019-04-04T03:25:18.520Z,0.00
2019-04-04T03:26:20.092Z,0.00
2019-04-04T03:27:18.418Z,0.00
2019-04-04T03:28:18.369Z,0.00
2019-04-04T03:29:18.344Z,0.00
2019-04-04T03:30:18.357Z,0.00
2019-04-04T03:31:18.277Z,0.00
2019-04-04T03:32:18.226Z,0.00
2019-04-04T03:33:18.171Z,0.00
2019-04-04T03:34:18.111Z,0.00
2019-04-04T03:35:25.699Z,0.00
2019-04-04T03:36:18.035Z,0.00
2019-04-04T03:37:17.971Z,0.00
2019-04-04T03:38:17.942Z,0.00
2019-04-04T03:39:19.578Z,0.00
2019-04-04T03:40:17.858Z,0.00
2019-04-04T03:41:17.791Z,0.00
2019-04-04T03:42:30.481Z,0.00
2019-04-04T03:43:17.690Z,0.00
2019-04-04T03:44:20.211Z,0.00
2019-04-04T03:45:17.634Z,0.00
2019-04-04T03:46:17.560Z,0.00
2019-04-04T03:47:17.515Z,0.00
2019-04-04T03:48:18.727Z,0.00
2019-04-04T03:49:17.415Z,0.00
2019-04-04T03:50:17.378Z,0.00
2019-04-04T03:51:17.347Z,0.00
2019-04-04T03:52:17.279Z,0.00
2019-04-04T03:53:17.711Z,0.00
2019-04-04T03:54:17.214Z,0.00
2019-04-04T03:55:17.154Z,0.00
2019-04-04T03:56:17.098Z,0.00
2019-04-04T03:57:17.053Z,0.00
2019-04-04T03:58:17.015Z,0.00
2019-04-04T03:59:16.969Z,0.00
2019-04-04T04:00:16.915Z,0.00
2019-04-04T04:01:16.909Z,0.00
2019-04-04T04:02:18.525Z,0.00
2019-04-04T04:03:16.788Z,0.00
2019-04-04T04:04:16.733Z,0.00
2019-04-04T04:05:16.695Z,0.00
2019-04-04T04:06:16.656Z,0.00
2019-04-04T04:07:16.619Z,0.00
2019-04-04T04:08:21.014Z,0.00
2019-04-04T04:09:16.519Z,0.00
2019-04-04T04:10:16.481Z,0.00
2019-04-04T04:11:16.452Z,0.00
2019-04-04T04:12:16.407Z,0.00
2019-04-04T04:13:17.546Z,0.00
2019-04-04T04:14:16.292Z,0.00
2019-04-04T04:15:16.266Z,0.00
2019-04-04T04:16:16.208Z,0.00
2019-04-04T04:17:16.178Z,0.00
2019-04-04T04:18:20.356Z,0.00
2019-04-04T04:19:16.072Z,0.00
2019-04-04T04:20:16.026Z,0.00
2019-04-04T04:21:16.008Z,0.00
2019-04-04T04:22:19.350Z,0.00
2019-04-04T04:23:15.895Z,0.00
2019-04-04T04:24:15.844Z,0.00
2019-04-04T04:25:15.799Z,0.00
2019-04-04T04:26:15.747Z,0.00
2019-04-04T04:27:15.833Z,0.00
2019-04-04T04:28:19.728Z,0.00
2019-04-04T04:29:15.617Z,0.00
2019-04-04T04:30:15.570Z,0.00
2019-04-04T04:31:15.764Z,0.00
2019-04-04T04:32:15.459Z,0.00
2019-04-04T04:33:15.413Z,0.00
2019-04-04T04:34:15.389Z,0.00
2019-04-04T04:35:15.323Z,0.00
2019-04-04T04:36:16.346Z,0.00
2019-04-04T04:37:15.246Z,0.00
2019-04-04T04:38:15.215Z,0.00
2019-04-04T04:39:15.147Z,0.00
2019-04-04T04:40:15.422Z,0.00
2019-04-04T04:41:15.053Z,0.00
2019-04-04T04:42:15.003Z,0.00
2019-04-04T04:43:15.761Z,0.00
2019-04-04T04:44:14.913Z,0.00
2019-04-04T04:45:14.877Z,0.00
2019-04-04T04:46:17.864Z,0.00
2019-04-04T04:47:14.797Z,0.00
2019-04-04T04:48:14.737Z,0.00
2019-04-04T04:49:14.692Z,0.00
2019-04-04T04:50:14.648Z,0.00
2019-04-04T04:51:14.592Z,0.00
2019-04-04T04:52:15.367Z,0.00
2019-04-04T04:53:18.482Z,0.00
2019-04-04T04:54:14.479Z,0.00
2019-04-04T04:55:14.426Z,0.00
2019-04-04T04:56:17.414Z,0.00
2019-04-04T04:57:28.431Z,0.00
2019-04-04T04:58:14.287Z,0.00
2019-04-04T04:59:14.245Z,0.00
2019-04-04T05:00:16.118Z,0.00
2019-04-04T05:01:14.149Z,0.00
2019-04-04T05:02:14.099Z,0.00
2019-04-04T05:03:14.045Z,0.00
2019-04-04T05:04:14.013Z,0.00
2019-04-04T05:05:13.965Z,0.00
2019-04-04T05:06:13.929Z,0.00
2019-04-04T05:07:13.884Z,0.00
2019-04-04T05:08:13.838Z,0.00
2019-04-04T05:09:14.586Z,0.00
2019-04-04T05:10:14.951Z,0.00
2019-04-04T05:11:14.627Z,0.00
2019-04-04T05:12:13.642Z,0.00
2019-04-04T05:13:13.601Z,0.00
2019-04-04T05:14:13.542Z,0.00
2019-04-04T05:15:13.497Z,0.00
2019-04-04T05:16:13.472Z,0.00
2019-04-04T05:17:13.426Z,0.00
2019-04-04T05:18:14.159Z,0.00
2019-04-04T05:19:13.336Z,0.00
2019-04-04T05:20:16.726Z,0.00
2019-04-04T05:21:24.432Z,0.00
2019-04-04T05:22:13.205Z,0.00
2019-04-04T05:23:15.208Z,0.00
2019-04-04T05:24:13.107Z,0.00
2019-04-04T05:25:13.055Z,0.00
2019-04-04T05:26:13.003Z,0.00
2019-04-04T05:27:12.957Z,0.00
2019-04-04T05:28:12.916Z,0.00
2019-04-04T05:29:14.064Z,0.00
2019-04-04T05:30:15.868Z,0.00
2019-04-04T05:31:12.818Z,0.00
2019-04-04T05:32:12.733Z,0.00
2019-04-04T05:33:12.695Z,0.00
2019-04-04T05:34:12.637Z,0.00
2019-04-04T05:35:15.039Z,0.00
2019-04-04T05:36:12.554Z,0.00
2019-04-04T05:37:12.491Z,0.00
2019-04-04T05:38:12.912Z,0.00
2019-04-04T05:39:12.404Z,0.00
2019-04-04T05:40:12.362Z,0.00
2019-04-04T05:41:12.325Z,0.00
2019-04-04T05:42:12.276Z,0.00
2019-04-04T05:43:14.834Z,0.00
2019-04-04T05:44:12.186Z,0.00
2019-04-04T05:45:14.450Z,0.00
2019-04-04T05:46:12.105Z,0.00
2019-04-04T05:47:12.042Z,0.00
2019-04-04T05:48:12.009Z,0.00
2019-04-04T05:49:11.975Z,0.00
2019-04-04T05:50:12.091Z,0.00
2019-04-04T05:51:14.961Z,0.00
2019-04-04T05:52:11.826Z,0.00
2019-04-04T05:53:11.787Z,0.00
2019-04-04T05:54:11.712Z,0.00
2019-04-04T05:55:11.666Z,0.00
2019-04-04T05:56:14.841Z,0.00
2019-04-04T05:57:11.611Z,0.00
2019-04-04T05:58:11.529Z,0.00
2019-04-04T05:59:11.504Z,0.00
2019-04-04T06:00:11.474Z,0.00
2019-04-04T06:01:11.404Z,0.00
2019-04-04T06:02:12.073Z,0.00
2019-04-04T06:03:14.828Z,0.00
2019-04-04T06:04:11.312Z,0.00
2019-04-04T06:05:11.221Z,0.00
2019-04-04T06:06:11.258Z,0.00
2019-04-04T06:07:11.156Z,0.00
2019-04-04T06:08:11.083Z,0.00
2019-04-04T06:09:13.988Z,0.00
2019-04-04T06:10:12.131Z,0.00
2019-04-04T06:11:10.948Z,0.00
2019-04-04T06:12:10.909Z,0.00
2019-04-04T06:13:10.841Z,0.00
2019-04-04T06:14:10.796Z,0.00
2019-04-04T06:15:10.762Z,0.00
2019-04-04T06:16:10.704Z,0.00
2019-04-04T06:17:10.672Z,0.00
2019-04-04T06:18:11.750Z,0.00
2019-04-04T06:19:14.093Z,0.00
2019-04-04T06:20:10.546Z,0.00
2019-04-04T06:21:10.488Z,0.00
2019-04-04T06:22:10.450Z,0.00
2019-04-04T06:23:10.400Z,0.00
2019-04-04T06:24:10.358Z,0.00
2019-04-04T06:25:13.765Z,0.00
2019-04-04T06:26:10.267Z,0.00
2019-04-04T06:27:10.220Z,0.00
2019-04-04T06:28:12.037Z,0.00
2019-04-04T06:29:10.117Z,0.00
2019-04-04T06:30:10.070Z,0.00
2019-04-04T06:31:10.037Z,0.00
2019-04-04T06:32:09.994Z,0.00
2019-04-04T06:33:09.945Z,0.00
2019-04-04T06:34:10.896Z,0.00
2019-04-04T06:35:09.832Z,0.00
2019-04-04T06:36:09.795Z,0.00
2019-04-04T06:37:09.740Z,0.00
2019-04-04T06:38:09.703Z,0.00
2019-04-04T06:39:09.648Z,0.00
2019-04-04T06:40:09.623Z,0.00
2019-04-04T06:41:09.592Z,0.00
2019-04-04T06:42:11.344Z,0.00
2019-04-04T06:43:11.534Z,0.00
2019-04-04T06:44:12.739Z,0.00
2019-04-04T06:45:09.408Z,0.00
2019-04-04T06:46:09.348Z,0.00
2019-04-04T06:47:09.303Z,0.00
2019-04-04T06:48:09.244Z,0.00
2019-04-04T06:49:09.197Z,0.00
2019-04-04T06:50:09.151Z,0.00
2019-04-04T06:51:09.106Z,0.00
2019-04-04T06:52:09.445Z,0.00
2019-04-04T06:53:09.010Z,0.00
2019-04-04T06:54:08.960Z,0.00
2019-04-04T06:55:08.913Z,0.00
2019-04-04T06:56:08.877Z,0.00
2019-04-04T06:57:08.835Z,0.00
2019-04-04T06:58:09.706Z,0.00
2019-04-04T06:59:11.250Z,0.00
2019-04-04T07:00:08.705Z,0.00
2019-04-04T07:01:11.017Z,0.00
2019-04-04T07:02:08.605Z,0.00
2019-04-04T07:03:08.547Z,0.00
2019-04-04T07:04:08.521Z,0.00
2019-04-04T07:05:10.575Z,0.00
2019-04-04T07:06:10.117Z,0.00
2019-04-04T07:07:08.383Z,0.00
2019-04-04T07:08:08.317Z,0.00
2019-04-04T07:09:08.291Z,0.00
2019-04-04T07:10:08.247Z,0.00
2019-04-04T07:11:20.570Z,0.00
2019-04-04T07:12:20.355Z,0.00
2019-04-04T07:13:20.962Z,0.00
2019-04-04T07:14:08.061Z,0.00
2019-04-04T07:15:11.125Z,0.00
2019-04-04T07:16:08.295Z,0.00
2019-04-04T07:17:08.826Z,0.00
2019-04-04T07:18:07.877Z,0.00
2019-04-04T07:19:08.361Z,0.00
2019-04-04T07:20:07.785Z,0.00
2019-04-04T07:21:07.747Z,0.00
2019-04-04T07:22:07.672Z,0.00
2019-04-04T07:23:07.638Z,0.00
2019-04-04T07:24:07.594Z,0.00
2019-04-04T07:25:07.546Z,0.00
2019-04-04T07:26:09.643Z,0.00
2019-04-04T07:27:07.456Z,0.00
2019-04-04T07:28:07.417Z,0.00
2019-04-04T07:29:07.358Z,0.00
2019-04-04T07:30:07.319Z,0.00
2019-04-04T07:31:07.258Z,0.00
2019-04-04T07:32:09.547Z,0.00
2019-04-04T07:33:07.180Z,0.00
2019-04-04T07:34:07.123Z,0.00
2019-04-04T07:35:07.085Z,0.00
2019-04-04T07:36:07.043Z,0.00
2019-04-04T07:37:06.992Z,0.00
2019-04-04T07:38:06.956Z,0.00
2019-04-04T07:39:06.910Z,0.00
2019-04-04T07:40:06.867Z,0.00
2019-04-04T07:41:08.465Z,0.00
2019-04-04T07:42:06.751Z,0.00
2019-04-04T07:43:08.582Z,0.00
2019-04-04T07:44:06.680Z,0.00
2019-04-04T07:45:06.621Z,0.00
2019-04-04T07:46:16.227Z,0.00
2019-04-04T07:47:06.544Z,0.00
2019-04-04T07:48:06.496Z,0.00
2019-04-04T07:49:06.448Z,0.00
2019-04-04T07:50:06.400Z,0.00
2019-04-04T07:51:06.352Z,0.00
2019-04-04T07:52:06.290Z,0.00
2019-04-04T07:53:06.269Z,0.00
2019-04-04T07:54:07.403Z,0.00
2019-04-04T07:55:06.230Z,0.00
2019-04-04T07:56:06.106Z,0.00
2019-04-04T07:57:06.071Z,0.00
2019-04-04T07:58:06.022Z,0.00
2019-04-04T07:59:05.980Z,0.00
2019-04-04T08:00:05.943Z,0.00
2019-04-04T08:01:05.884Z,0.00
2019-04-04T08:02:05.852Z,0.00
2019-04-04T08:03:05.804Z,0.00
2019-04-04T08:04:06.708Z,0.00
2019-04-04T08:05:05.691Z,0.00
2019-04-04T08:06:05.666Z,0.00
2019-04-04T08:07:05.612Z,0.00
2019-04-04T08:08:05.560Z,0.00
2019-04-04T08:09:05.527Z,0.00
2019-04-04T08:10:05.474Z,0.00
2019-04-04T08:11:05.414Z,0.00
2019-04-04T08:12:05.388Z,0.00
2019-04-04T08:13:05.342Z,0.00
2019-04-04T08:14:05.283Z,0.00
2019-04-04T08:15:05.241Z,0.00
2019-04-04T08:16:05.204Z,0.00
2019-04-04T08:17:05.145Z,0.00
2019-04-04T08:18:05.128Z,0.00
2019-04-04T08:19:05.055Z,0.00
2019-04-04T08:20:05.019Z,0.00
2019-04-04T08:21:05.787Z,0.00
2019-04-04T08:22:04.944Z,0.00
2019-04-04T08:23:04.868Z,0.00
2019-04-04T08:24:04.837Z,0.00
2019-04-04T08:25:04.794Z,0.00
2019-04-04T08:26:04.744Z,0.00
2019-04-04T08:27:04.688Z,0.00
2019-04-04T08:28:04.636Z,0.00
2019-04-04T08:29:04.607Z,0.00
2019-04-04T08:30:04.557Z,0.00
2019-04-04T08:31:04.490Z,0.00
2019-04-04T08:32:04.452Z,0.00
2019-04-04T08:33:04.482Z,0.00
2019-04-04T08:34:04.364Z,0.00
2019-04-04T08:35:04.329Z,0.00
2019-04-04T08:36:06.306Z,0.00
2019-04-04T08:37:04.215Z,0.00
2019-04-04T08:38:04.167Z,0.00
2019-04-04T08:39:04.132Z,0.00
2019-04-04T08:40:04.096Z,0.00
2019-04-04T08:41:04.036Z,0.00
2019-04-04T08:42:03.994Z,0.00
2019-04-04T08:43:03.956Z,0.00
2019-04-04T08:44:03.888Z,0.00
2019-04-04T08:45:03.847Z,0.00
2019-04-04T08:46:03.806Z,0.00
2019-04-04T08:47:03.759Z,0.00
2019-04-04T08:48:03.725Z,0.00
2019-04-04T08:49:03.669Z,0.00
2019-04-04T08:50:03.612Z,0.00
2019-04-04T08:51:03.570Z,0.00
2019-04-04T08:52:15.881Z,0.00
2019-04-04T08:53:03.485Z,0.00
2019-04-04T08:54:03.429Z,0.00
2019-04-04T08:55:03.393Z,0.00
2019-04-04T08:56:03.342Z,0.00
2019-04-04T08:57:03.301Z,0.00
2019-04-04T08:58:03.263Z,0.00
2019-04-04T08:59:03.208Z,0.00
2019-04-04T09:00:03.163Z,0.00
2019-04-04T09:01:03.106Z,0.00
2019-04-04T09:02:03.088Z,0.00
2019-04-04T09:03:03.011Z,0.00
2019-04-04T09:04:02.977Z,0.00
2019-04-04T09:05:11.831Z,0.00
2019-04-04T09:06:02.888Z,0.00
2019-04-04T09:07:02.849Z,0.00
2019-04-04T09:08:02.792Z,0.00
2019-04-04T09:09:02.746Z,0.00
2019-04-04T09:10:02.708Z,0.00
2019-04-04T09:11:02.663Z,0.00
2019-04-04T09:12:02.603Z,0.00
2019-04-04T09:13:02.552Z,0.00
2019-04-04T09:14:02.502Z,0.00
2019-04-04T09:15:02.464Z,0.00
2019-04-04T09:16:02.422Z,0.00
2019-04-04T09:17:02.377Z,5.63
2019-04-04T09:18:02.330Z,5.63
2019-04-04T09:19:02.283Z,5.63
2019-04-04T09:20:02.235Z,5.63
2019-04-04T09:21:02.199Z,5.63
2019-04-04T09:22:02.178Z,5.63
2019-04-04T09:23:02.095Z,11.25
2019-04-04T09:24:02.047Z,11.25
2019-04-04T09:25:02.014Z,11.25
2019-04-04T09:26:05.910Z,11.25
2019-04-04T09:27:01.900Z,11.25
2019-04-04T09:28:01.868Z,16.88
2019-04-04T09:29:01.816Z,16.88
2019-04-04T09:30:01.762Z,16.88
2019-04-04T09:31:01.715Z,16.88
2019-04-04T09:32:01.687Z,16.88
2019-04-04T09:33:01.645Z,22.50
2019-04-04T09:34:01.600Z,22.50
2019-04-04T09:35:01.531Z,22.50
2019-04-04T09:36:01.484Z,22.50
2019-04-04T09:37:01.450Z,28.13
2019-04-04T09:38:01.402Z,28.13
2019-04-04T09:39:01.371Z,28.13
2019-04-04T09:40:01.299Z,33.75
2019-04-04T09:41:01.263Z,33.75
2019-04-04T09:42:01.238Z,33.75
2019-04-04T09:43:01.185Z,39.38
2019-04-04T09:44:01.130Z,39.38
2019-04-04T09:45:01.094Z,61.88
2019-04-04T09:46:01.035Z,73.13
2019-04-04T09:47:05.617Z,56.25
2019-04-04T09:48:00.969Z,61.88
2019-04-04T09:49:00.904Z,73.13
2019-04-04T09:50:00.853Z,84.38
2019-04-04T09:51:00.798Z,78.75
2019-04-04T09:52:00.757Z,61.88
2019-04-04T09:53:00.698Z,56.25
2019-04-04T09:54:00.653Z,61.88
2019-04-04T09:55:00.616Z,78.75
2019-04-04T09:56:00.583Z,73.13
2019-04-04T09:57:00.529Z,61.88
2019-04-04T09:58:00.476Z,67.50
2019-04-04T09:59:00.429Z,61.88
2019-04-04T10:00:00.389Z,78.75
2019-04-04T10:01:00.356Z,106.88
2019-04-04T10:02:00.294Z,106.88
2019-04-04T10:03:00.257Z,101.25
2019-04-04T10:04:00.214Z,84.38
2019-04-04T10:05:00.171Z,84.38
2019-04-04T10:06:00.112Z,95.63
2019-04-04T10:07:00.059Z,90.00
2019-04-04T10:08:00.034Z,90.00
2019-04-04T10:08:59.965Z,101.25
2019-04-04T10:09:59.934Z,95.63
2019-04-04T10:10:59.896Z,78.75
2019-04-04T10:11:59.865Z,78.75
2019-04-04T10:12:59.797Z,84.38
2019-04-04T10:13:59.767Z,95.63
2019-04-04T10:14:59.717Z,84.38
2019-04-04T10:15:59.667Z,84.38
2019-04-04T10:16:59.603Z,101.25
2019-04-04T10:17:59.566Z,123.75
2019-04-04T10:18:59.539Z,151.88
2019-04-04T10:19:59.473Z,174.38
2019-04-04T10:21:11.155Z,151.88
2019-04-04T10:21:59.395Z,118.13
2019-04-04T10:22:59.336Z,135.00
2019-04-04T10:23:59.526Z,151.88
2019-04-04T10:24:59.237Z,163.13
2019-04-04T10:25:59.204Z,129.38
2019-04-04T10:26:59.183Z,140.63
2019-04-04T10:27:59.127Z,135.00
2019-04-04T10:28:59.070Z,118.13
2019-04-04T10:29:59.025Z,163.13
2019-04-04T10:30:58.977Z,270.00
2019-04-04T10:31:58.933Z,455.63
2019-04-04T10:32:58.884Z,551.25
2019-04-04T10:33:58.833Z,579.38
2019-04-04T10:34:58.798Z,568.13
2019-04-04T10:35:58.759Z,562.50
2019-04-04T10:36:58.710Z,556.88
2019-04-04T10:37:58.673Z,545.63
2019-04-04T10:38:58.614Z,551.25
2019-04-04T10:39:58.602Z,551.25
2019-04-04T10:40:58.556Z,556.88
2019-04-04T10:41:58.494Z,562.50
2019-04-04T10:42:58.464Z,568.13
2019-04-04T10:43:58.423Z,562.50
2019-04-04T10:44:58.365Z,556.88
2019-04-04T10:45:58.332Z,568.13
2019-04-04T10:46:58.294Z,562.50
2019-04-04T10:47:58.252Z,590.63
2019-04-04T10:48:58.212Z,607.50
2019-04-04T10:49:58.583Z,596.25
2019-04-04T10:50:58.140Z,601.88
2019-04-04T10:51:58.117Z,601.88
2019-04-04T10:52:58.049Z,613.13
2019-04-04T10:53:58.012Z,613.13
2019-04-04T10:54:58.000Z,596.25
2019-04-04T10:55:57.957Z,618.75
2019-04-04T10:56:57.933Z,607.50
2019-04-04T10:57:57.875Z,596.25
2019-04-04T10:58:57.834Z,607.50
2019-04-04T10:59:57.795Z,585.00
2019-04-04T11:00:57.774Z,573.75
2019-04-04T11:02:00.694Z,579.38
2019-04-04T11:02:57.699Z,579.38
2019-04-04T11:03:57.708Z,579.38
2019-04-04T11:04:57.621Z,579.38
2019-04-04T11:05:57.585Z,573.75
2019-04-04T11:06:57.558Z,573.75
2019-04-04T11:07:57.522Z,562.50
2019-04-04T11:08:57.479Z,393.75
2019-04-04T11:09:57.450Z,247.50
2019-04-04T11:10:58.920Z,225.00
2019-04-04T11:11:57.366Z,191.25
2019-04-04T11:12:57.320Z,163.13
2019-04-04T11:13:57.298Z,151.88
2019-04-04T11:14:57.263Z,146.25
2019-04-04T11:15:57.222Z,140.63
2019-04-04T11:16:57.183Z,135.00
2019-04-04T11:17:57.149Z,135.00
2019-04-04T11:18:57.103Z,135.00
2019-04-04T11:19:57.108Z,135.00
2019-04-04T11:20:57.016Z,135.00
2019-04-04T11:21:56.979Z,135.00
2019-04-04T11:22:56.953Z,135.00
2019-04-04T11:23:56.897Z,135.00
2019-04-04T11:24:56.879Z,129.38
2019-04-04T11:25:56.839Z,129.38
2019-04-04T11:26:56.796Z,129.38
2019-04-04T11:27:56.756Z,129.38
2019-04-04T11:28:56.709Z,129.38
2019-04-04T11:29:56.666Z,129.38
2019-04-04T11:30:56.619Z,129.38
2019-04-04T11:31:56.593Z,129.38
2019-04-04T11:32:56.540Z,129.38
2019-04-04T11:33:56.507Z,129.38
2019-04-04T11:34:56.475Z,129.38
2019-04-04T11:35:56.415Z,129.38
2019-04-04T11:36:56.419Z,129.38
2019-04-04T11:37:56.337Z,129.38
2019-04-04T11:38:56.296Z,129.38
2019-04-04T11:39:56.255Z,129.38
2019-04-04T11:40:56.207Z,129.38
2019-04-04T11:41:56.150Z,129.38
2019-04-04T11:42:56.111Z,129.38
2019-04-04T11:43:56.075Z,129.38
2019-04-04T11:44:56.028Z,129.38
2019-04-04T11:45:56.013Z,129.38
2019-04-04T11:46:55.941Z,135.00
2019-04-04T11:47:55.891Z,129.38
2019-04-04T11:48:55.895Z,129.38
2019-04-04T11:49:55.830Z,129.38
2019-04-04T11:50:55.830Z,129.38
2019-04-04T11:51:55.719Z,129.38
2019-04-04T11:52:55.700Z,129.38
2019-04-04T11:53:55.643Z,123.75
2019-04-04T11:54:55.597Z,123.75
2019-04-04T11:55:55.556Z,123.75
2019-04-04T11:56:55.598Z,123.75
2019-04-04T11:57:55.476Z,123.75
2019-04-04T11:58:55.422Z,123.75
2019-04-04T11:59:55.380Z,123.75
2019-04-04T12:00:55.336Z,123.75
2019-04-04T12:01:55.298Z,123.75
2019-04-04T12:02:55.268Z,123.75
2019-04-04T12:03:55.204Z,123.75
2019-04-04T12:04:57.655Z,123.75
2019-04-04T12:05:55.145Z,123.75
2019-04-04T12:06:55.084Z,123.75
2019-04-04T12:07:55.050Z,123.75
2019-04-04T12:08:55.040Z,123.75
2019-04-04T12:10:06.776Z,123.75
2019-04-04T12:10:54.905Z,123.75
2019-04-04T12:11:54.888Z,123.75
2019-04-04T12:12:54.820Z,123.75
2019-04-04T12:13:54.783Z,123.75
2019-04-04T12:14:54.752Z,123.75
2019-04-04T12:15:54.691Z,123.75
2019-04-04T12:16:54.647Z,123.75
2019-04-04T12:17:54.610Z,123.75
2019-04-04T12:18:54.584Z,123.75
2019-04-04T12:19:54.539Z,118.13
2019-04-04T12:20:54.483Z,118.13
2019-04-04T12:21:54.432Z,118.13
2019-04-04T12:22:54.393Z,118.13
2019-04-04T12:23:54.367Z,118.13
2019-04-04T12:24:54.303Z,118.13
2019-04-04T12:25:54.260Z,118.13
2019-04-04T12:26:54.225Z,118.13
2019-04-04T12:27:54.194Z,118.13
2019-04-04T12:28:54.145Z,118.13
2019-04-04T12:29:54.097Z,118.13
2019-04-04T12:30:54.049Z,118.13
2019-04-04T12:31:54.024Z,123.75
2019-04-04T12:32:53.974Z,118.13
2019-04-04T12:33:53.917Z,118.13
2019-04-04T12:34:53.899Z,118.13
2019-04-04T12:35:53.836Z,118.13
2019-04-04T12:36:53.789Z,118.13
2019-04-04T12:37:53.746Z,118.13
2019-04-04T12:38:53.728Z,118.13
2019-04-04T12:39:53.684Z,118.13
2019-04-04T12:40:53.653Z,118.13
2019-04-04T12:41:53.582Z,118.13
2019-04-04T12:42:53.550Z,118.13
2019-04-04T12:43:53.504Z,118.13
2019-04-04T12:44:53.470Z,118.13
2019-04-04T12:45:53.416Z,112.50
2019-04-04T12:46:53.379Z,118.13
2019-04-04T12:47:53.338Z,118.13
2019-04-04T12:48:53.288Z,118.13
2019-04-04T12:49:53.267Z,112.50
2019-04-04T12:50:53.207Z,112.50
2019-04-04T12:51:53.167Z,112.50
2019-04-04T12:52:53.115Z,112.50
2019-04-04T12:53:53.083Z,112.50
2019-04-04T12:54:53.041Z,112.50
2019-04-04T12:55:54.269Z,112.50
2019-04-04T12:56:52.952Z,112.50
2019-04-04T12:57:52.917Z,112.50
2019-04-04T12:58:52.867Z,112.50
2019-04-04T12:59:52.829Z,112.50
2019-04-04T13:00:52.786Z,112.50
2019-04-04T13:01:52.763Z,112.50
2019-04-04T13:02:52.713Z,112.50
2019-04-04T13:03:52.661Z,112.50
2019-04-04T13:04:52.609Z,112.50
2019-04-04T13:05:52.574Z,112.50